createdAt,value
2022-08-27T00:02:10.215Z,19.00
2022-08-27T00:04:39.309Z,18.90
2022-08-27T00:07:08.400Z,18.90
2022-08-27T00:09:37.751Z,18.90
2022-08-27T00:12:09.038Z,18.80
2022-08-27T00:14:38.871Z,18.80
2022-08-27T00:17:08.556Z,18.80
2022-08-27T00:19:37.662Z,18.80
2022-08-27T00:22:06.693Z,18.80
2022-08-27T00:24:35.046Z,18.70
2022-08-27T00:27:08.060Z,18.80
2022-08-27T00:29:37.601Z,18.70
2022-08-27T00:32:06.607Z,18.70
2022-08-27T00:34:34.842Z,18.70
2022-08-27T00:37:03.853Z,18.70
2022-08-27T00:39:32.264Z,18.70
2022-08-27T00:42:01.269Z,18.70
2022-08-27T00:44:31.959Z,18.70
2022-08-27T00:47:04.462Z,18.60
2022-08-27T00:49:45.786Z,18.60
2022-08-27T00:52:22.220Z,18.70
2022-08-27T00:54:53.857Z,18.60
2022-08-27T00:57:22.270Z,18.60
2022-08-27T00:59:51.859Z,18.60
2022-08-27T01:02:20.344Z,18.50
2022-08-27T01:04:54.128Z,18.50
2022-08-27T01:07:24.787Z,18.50
2022-08-27T01:09:59.376Z,18.50
2022-08-27T01:12:28.439Z,18.60
2022-08-27T01:14:58.417Z,18.60
2022-08-27T01:17:27.573Z,18.50
2022-08-27T01:19:58.898Z,18.50
2022-08-27T01:22:34.486Z,18.50
2022-08-27T01:25:09.843Z,18.50
2022-08-27T01:27:39.143Z,18.50
2022-08-27T01:30:10.071Z,18.50
2022-08-27T01:32:39.420Z,18.50
2022-08-27T01:35:12.671Z,18.50
2022-08-27T01:37:42.484Z,18.40
2022-08-27T01:40:16.301Z,18.40
2022-08-27T01:42:49.250Z,18.50
2022-08-27T01:45:22.783Z,18.40
2022-08-27T01:47:51.013Z,18.40
2022-08-27T01:50:22.927Z,18.40
2022-08-27T01:52:51.605Z,18.40
2022-08-27T01:55:25.883Z,18.40
2022-08-27T01:57:55.118Z,18.40
2022-08-27T02:00:28.236Z,18.40
2022-08-27T02:02:56.841Z,18.40
2022-08-27T02:05:25.254Z,18.40
2022-08-27T02:07:54.259Z,18.30
2022-08-27T02:10:28.128Z,18.40
2022-08-27T02:12:56.511Z,18.30
2022-08-27T02:15:25.705Z,18.30
2022-08-27T02:17:53.912Z,18.30
2022-08-27T02:20:24.299Z,18.40
2022-08-27T02:22:57.879Z,18.30
2022-08-27T02:25:29.000Z,18.30
2022-08-27T02:28:00.126Z,18.30
2022-08-27T02:30:32.023Z,18.30
2022-08-27T02:33:00.941Z,18.30
2022-08-27T02:35:31.612Z,18.30
2022-08-27T02:38:00.349Z,18.30
2022-08-27T02:40:30.586Z,18.30
2022-08-27T02:42:58.846Z,18.30
2022-08-27T02:45:27.318Z,18.30
2022-08-27T02:47:55.511Z,18.30
2022-08-27T02:50:27.467Z,18.30
2022-08-27T02:52:56.103Z,18.30
2022-08-27T02:55:24.746Z,18.30
2022-08-27T02:57:54.273Z,18.30
2022-08-27T03:00:25.268Z,18.30
2022-08-27T03:02:53.374Z,18.20
2022-08-27T03:05:24.923Z,18.30
2022-08-27T03:07:53.236Z,18.30
2022-08-27T03:10:23.384Z,18.30
2022-08-27T03:12:53.174Z,18.30
2022-08-27T03:15:21.866Z,18.30
2022-08-27T03:18:07.681Z,18.30
2022-08-27T03:20:40.795Z,18.30
2022-08-27T03:23:09.598Z,18.20
2022-08-27T03:25:38.791Z,18.20
2022-08-27T03:28:22.516Z,18.20
2022-08-27T03:30:53.822Z,18.30
2022-08-27T03:33:23.196Z,18.20
2022-08-27T03:35:52.149Z,18.20
2022-08-27T03:38:21.493Z,18.20
2022-08-27T03:40:50.446Z,18.20
2022-08-27T03:43:22.108Z,18.20
2022-08-27T03:46:01.734Z,18.20
2022-08-27T03:48:31.839Z,18.20
2022-08-27T03:51:00.339Z,18.20
2022-08-27T03:53:28.527Z,18.20
2022-08-27T03:55:56.676Z,18.20
2022-08-27T03:58:26.338Z,18.20
2022-08-27T04:00:54.504Z,18.20
2022-08-27T04:03:22.858Z,18.20
2022-08-27T04:05:54.930Z,18.20
2022-08-27T04:08:23.650Z,18.20
2022-08-27T04:10:53.677Z,18.20
2022-08-27T04:13:23.212Z,18.10
2022-08-27T04:15:54.966Z,18.10
2022-08-27T04:18:23.400Z,18.10
2022-08-27T04:20:53.648Z,18.10
2022-08-27T04:23:22.634Z,18.10
2022-08-27T04:25:51.106Z,18.10
2022-08-27T04:28:19.386Z,18.00
2022-08-27T04:30:48.637Z,18.00
2022-08-27T04:33:18.727Z,18.00
2022-08-27T04:35:46.954Z,18.00
2022-08-27T04:38:15.309Z,18.00
2022-08-27T04:41:00.865Z,18.00
2022-08-27T04:43:29.239Z,18.00
2022-08-27T04:45:57.478Z,18.00
2022-08-27T04:48:27.295Z,18.00
2022-08-27T04:50:55.631Z,17.90
2022-08-27T04:53:23.974Z,17.90
2022-08-27T04:55:55.939Z,17.90
2022-08-27T04:58:26.189Z,17.90
2022-08-27T05:00:59.245Z,17.90
2022-08-27T05:03:29.911Z,17.90
2022-08-27T05:06:03.845Z,17.90
2022-08-27T05:08:32.596Z,17.90
2022-08-27T05:11:01.864Z,17.90
2022-08-27T05:13:30.896Z,17.90
2022-08-27T05:16:01.664Z,17.90
2022-08-27T05:18:34.219Z,17.90
2022-08-27T05:21:07.032Z,17.90
2022-08-27T05:23:40.194Z,18.00
2022-08-27T05:26:09.393Z,17.90
2022-08-27T05:28:37.769Z,18.00
2022-08-27T05:31:09.737Z,17.90
2022-08-27T05:33:41.472Z,18.00
2022-08-27T05:36:17.506Z,17.90
2022-08-27T05:38:45.872Z,17.90
2022-08-27T05:41:17.367Z,17.90
2022-08-27T05:43:50.197Z,17.90
2022-08-27T05:46:22.367Z,18.00
2022-08-27T05:48:53.917Z,18.00
2022-08-27T05:51:26.443Z,18.00
2022-08-27T05:53:57.588Z,18.00
2022-08-27T05:56:29.131Z,18.00
2022-08-27T05:59:15.687Z,18.00
2022-08-27T06:01:47.909Z,18.00
2022-08-27T06:04:20.501Z,18.00
2022-08-27T06:06:50.447Z,18.00
2022-08-27T06:09:22.930Z,18.00
2022-08-27T06:11:51.795Z,18.00
2022-08-27T06:14:19.990Z,18.00
2022-08-27T06:16:48.511Z,18.00
2022-08-27T06:19:18.580Z,18.00
2022-08-27T06:22:01.079Z,18.00
2022-08-27T06:24:36.048Z,18.00
2022-08-27T06:27:04.935Z,18.00
2022-08-27T06:29:34.178Z,18.00
2022-08-27T06:32:02.420Z,18.00
2022-08-27T06:34:32.038Z,18.00
2022-08-27T06:37:00.580Z,18.00
2022-08-27T06:39:29.329Z,18.00
2022-08-27T06:41:59.567Z,18.00
2022-08-27T06:44:27.805Z,18.00
2022-08-27T06:46:56.723Z,18.00
2022-08-27T06:49:25.029Z,18.00
2022-08-27T06:51:54.890Z,18.00
2022-08-27T06:54:23.291Z,18.00
2022-08-27T06:56:51.700Z,18.00
2022-08-27T06:59:20.814Z,18.00
2022-08-27T07:01:51.376Z,18.00
2022-08-27T07:04:22.887Z,17.90
2022-08-27T07:07:02.687Z,18.00
2022-08-27T07:09:32.506Z,18.00
2022-08-27T07:12:01.749Z,18.00
2022-08-27T07:14:35.660Z,18.00
2022-08-27T07:17:11.377Z,18.00
2022-08-27T07:19:45.493Z,18.00
2022-08-27T07:22:15.183Z,18.00
2022-08-27T07:24:43.512Z,18.10
2022-08-27T07:27:11.772Z,18.10
2022-08-27T07:29:40.556Z,18.10
2022-08-27T07:32:08.872Z,18.10
2022-08-27T07:34:37.148Z,18.10
2022-08-27T07:37:05.735Z,18.20
2022-08-27T07:39:35.386Z,18.20
2022-08-27T07:42:21.145Z,18.20
2022-08-27T07:44:49.956Z,18.20
2022-08-27T07:47:18.517Z,18.20
2022-08-27T07:49:46.811Z,18.20
2022-08-27T07:52:17.250Z,18.20
2022-08-27T07:54:47.466Z,18.20
2022-08-27T07:57:15.875Z,18.20
2022-08-27T07:59:44.181Z,18.30
2022-08-27T08:02:12.841Z,18.30
2022-08-27T08:04:41.217Z,18.30
2022-08-27T08:07:09.613Z,18.30
2022-08-27T08:09:38.309Z,18.30
2022-08-27T08:12:08.642Z,18.40
2022-08-27T08:14:37.409Z,18.40
2022-08-27T08:17:08.839Z,18.50
2022-08-27T08:19:38.907Z,18.50
2022-08-27T08:22:07.177Z,18.60
2022-08-27T08:24:36.469Z,18.60
2022-08-27T08:27:07.336Z,18.70
2022-08-27T08:29:38.120Z,18.70
2022-08-27T08:32:07.777Z,18.70
2022-08-27T08:34:36.822Z,18.70
2022-08-27T08:37:06.698Z,18.80
2022-08-27T08:39:35.184Z,18.80
2022-08-27T08:42:06.838Z,18.80
2022-08-27T08:44:42.405Z,18.80
2022-08-27T08:47:16.899Z,18.90
2022-08-27T08:49:52.931Z,18.90
2022-08-27T08:52:32.154Z,18.90
2022-08-27T08:55:13.149Z,19.00
2022-08-27T08:57:50.482Z,19.00
2022-08-27T09:00:20.118Z,19.00
2022-08-27T09:02:54.657Z,19.10
2022-08-27T09:05:27.815Z,19.10
2022-08-27T09:08:31.030Z,19.20
2022-08-27T09:11:08.183Z,19.20
2022-08-27T09:13:43.482Z,19.20
2022-08-27T09:16:13.186Z,19.20
2022-08-27T09:18:45.435Z,19.30
2022-08-27T09:21:28.298Z,19.30
2022-08-27T09:24:09.373Z,19.30
2022-08-27T09:26:41.719Z,19.40
2022-08-27T09:29:22.525Z,19.50
2022-08-27T09:31:59.220Z,19.60
2022-08-27T09:34:35.041Z,19.70
2022-08-27T09:37:12.084Z,19.80
2022-08-27T09:39:50.077Z,19.80
2022-08-27T09:42:32.601Z,19.80
2022-08-27T09:45:01.492Z,19.80
2022-08-27T09:47:31.290Z,19.90
2022-08-27T09:50:08.808Z,20.00
2022-08-27T09:52:51.115Z,20.00
2022-08-27T09:55:33.399Z,20.10
2022-08-27T09:58:05.058Z,20.10
2022-08-27T10:00:40.288Z,20.10
2022-08-27T10:03:12.235Z,20.10
2022-08-27T10:05:50.728Z,20.10
2022-08-27T10:08:28.309Z,20.20
2022-08-27T10:11:00.121Z,20.10
2022-08-27T10:13:37.073Z,20.10
2022-08-27T10:16:31.072Z,20.10
2022-08-27T10:19:16.445Z,20.20
2022-08-27T10:21:56.822Z,20.10
2022-08-27T10:24:35.995Z,20.10
2022-08-27T10:27:14.431Z,20.20
2022-08-27T10:29:51.136Z,20.20
2022-08-27T10:32:44.026Z,20.20
2022-08-27T10:35:19.018Z,20.30
2022-08-27T10:37:59.404Z,20.30
2022-08-27T10:40:35.231Z,20.40
2022-08-27T10:43:34.342Z,20.40
2022-08-27T10:46:11.796Z,20.40
2022-08-27T10:48:45.225Z,20.40
2022-08-27T10:51:21.925Z,20.40
2022-08-27T10:54:00.728Z,20.40
2022-08-27T10:56:35.461Z,20.40
2022-08-27T10:59:18.778Z,20.40
2022-08-27T11:01:55.018Z,20.50
2022-08-27T11:04:27.571Z,20.60
2022-08-27T11:07:04.988Z,20.70
2022-08-27T11:09:39.638Z,20.70
2022-08-27T11:12:15.426Z,20.70
2022-08-27T11:14:52.404Z,20.70
2022-08-27T11:17:32.682Z,20.80
2022-08-27T11:20:08.434Z,20.80
2022-08-27T11:22:43.765Z,20.90
2022-08-27T11:25:32.094Z,21.00
2022-08-27T11:28:01.808Z,21.00
2022-08-27T11:30:41.227Z,20.90
2022-08-27T11:33:17.017Z,20.90
2022-08-27T11:36:11.010Z,20.90
2022-08-27T11:38:53.455Z,20.90
2022-08-27T11:41:52.917Z,21.00
2022-08-27T11:44:25.147Z,21.20
2022-08-27T11:46:58.393Z,21.20
2022-08-27T11:49:31.129Z,21.10
2022-08-27T11:52:02.843Z,21.20
2022-08-27T11:54:45.911Z,21.20
2022-08-27T11:57:28.724Z,21.20
2022-08-27T11:59:57.451Z,21.30
2022-08-27T12:02:30.097Z,21.30
2022-08-27T12:05:24.400Z,21.30
2022-08-27T12:07:55.119Z,21.30
2022-08-27T12:10:39.445Z,21.30
2022-08-27T12:13:22.318Z,21.30
2022-08-27T12:16:03.325Z,21.40
2022-08-27T12:18:55.000Z,21.50
2022-08-27T12:21:33.913Z,21.60
2022-08-27T12:24:24.483Z,21.70
2022-08-27T12:26:59.919Z,21.80
2022-08-27T12:29:44.160Z,21.80
2022-08-27T12:32:27.330Z,22.00
2022-08-27T12:35:06.358Z,22.00
2022-08-27T12:37:45.577Z,22.00
2022-08-27T12:40:24.627Z,22.00
2022-08-27T12:43:07.764Z,22.10
2022-08-27T12:45:47.270Z,22.20
2022-08-27T12:48:18.657Z,22.20
2022-08-27T12:50:54.341Z,22.20
2022-08-27T12:53:44.037Z,22.20
2022-08-27T12:56:45.641Z,22.20
2022-08-27T12:59:47.339Z,22.10
2022-08-27T13:03:07.462Z,22.10
2022-08-27T13:05:41.300Z,22.20
2022-08-27T13:08:21.642Z,22.10
2022-08-27T13:10:50.277Z,22.10
2022-08-27T13:13:21.313Z,22.10
2022-08-27T13:15:54.746Z,22.20
2022-08-27T13:18:23.986Z,22.20
2022-08-27T13:21:15.399Z,22.30
2022-08-27T13:23:47.383Z,22.30
2022-08-27T13:26:15.741Z,22.30
2022-08-27T13:28:44.667Z,22.40
2022-08-27T13:31:15.306Z,22.30
2022-08-27T13:33:44.094Z,22.30
2022-08-27T13:36:12.400Z,22.30
2022-08-27T13:38:47.895Z,22.40
2022-08-27T13:41:26.368Z,22.40
2022-08-27T13:43:59.145Z,22.40
2022-08-27T13:46:32.110Z,22.40
2022-08-27T13:49:01.161Z,22.40
2022-08-27T13:51:36.272Z,22.40
2022-08-27T13:54:14.293Z,22.40
2022-08-27T13:57:03.744Z,22.50
2022-08-27T13:59:41.598Z,22.50
2022-08-27T14:02:25.743Z,22.50
2022-08-27T14:05:12.345Z,22.60
2022-08-27T14:07:47.652Z,22.50
2022-08-27T14:10:34.196Z,22.60
2022-08-27T14:13:06.435Z,22.50
2022-08-27T14:15:39.569Z,22.50
2022-08-27T14:18:32.387Z,22.50
2022-08-27T14:21:10.781Z,22.50
2022-08-27T14:23:45.448Z,22.50
2022-08-27T14:26:17.428Z,22.50
2022-08-27T14:28:47.039Z,22.50
2022-08-27T14:31:16.693Z,22.50
2022-08-27T14:33:47.508Z,22.50
2022-08-27T14:36:16.482Z,22.50
2022-08-27T14:38:48.788Z,22.50
2022-08-27T14:41:21.625Z,22.50
2022-08-27T14:44:08.094Z,22.50
2022-08-27T14:46:41.563Z,22.50
2022-08-27T14:49:21.145Z,22.50
2022-08-27T14:51:50.418Z,22.50
2022-08-27T14:54:21.414Z,22.50
2022-08-27T14:56:50.325Z,22.50
2022-08-27T14:59:18.729Z,22.50
2022-08-27T15:01:49.638Z,22.40
2022-08-27T15:04:22.309Z,22.40
2022-08-27T15:06:51.406Z,22.40
2022-08-27T15:09:21.286Z,22.40
2022-08-27T15:11:50.608Z,22.40
2022-08-27T15:14:25.148Z,22.30
2022-08-27T15:16:53.880Z,22.30
2022-08-27T15:19:25.710Z,22.30
2022-08-27T15:21:58.328Z,22.30
2022-08-27T15:24:34.197Z,22.30
2022-08-27T15:27:02.628Z,22.30
2022-08-27T15:29:30.991Z,22.30
2022-08-27T15:31:59.561Z,22.20
2022-08-27T15:34:29.450Z,22.20
2022-08-27T15:36:57.789Z,22.20
2022-08-27T15:39:26.156Z,22.20
2022-08-27T15:42:06.467Z,22.30
2022-08-27T15:44:35.727Z,22.30
2022-08-27T15:47:04.067Z,22.20
2022-08-27T15:49:33.728Z,22.30
2022-08-27T15:52:02.165Z,22.30
2022-08-27T15:54:32.082Z,22.30
2022-08-27T15:57:00.833Z,22.30
2022-08-27T15:59:29.303Z,22.20
2022-08-27T16:01:57.710Z,22.30
2022-08-27T16:04:26.036Z,22.20
2022-08-27T16:06:56.202Z,22.20
2022-08-27T16:09:24.418Z,22.20
2022-08-27T16:11:52.714Z,22.20
2022-08-27T16:14:21.022Z,22.20
2022-08-27T16:16:52.377Z,22.10
2022-08-27T16:19:21.466Z,22.10
2022-08-27T16:21:51.059Z,22.10
2022-08-27T16:24:22.704Z,22.00
2022-08-27T16:26:54.119Z,22.00
2022-08-27T16:29:24.613Z,22.00
2022-08-27T16:32:00.548Z,21.90
2022-08-27T16:34:29.815Z,21.90
2022-08-27T16:36:58.356Z,21.80
2022-08-27T16:39:32.614Z,21.90
2022-08-27T16:42:02.242Z,21.80
2022-08-27T16:44:31.537Z,21.80
2022-08-27T16:47:00.103Z,21.80
2022-08-27T16:49:45.737Z,21.80
2022-08-27T16:52:17.242Z,21.80
2022-08-27T16:54:46.962Z,21.80
2022-08-27T16:57:15.289Z,21.80
2022-08-27T16:59:43.589Z,21.80
2022-08-27T17:02:23.003Z,21.80
2022-08-27T17:05:01.304Z,21.80
2022-08-27T17:07:43.973Z,21.80
2022-08-27T17:10:15.932Z,21.70
2022-08-27T17:12:47.075Z,21.70
2022-08-27T17:15:16.682Z,21.60
2022-08-27T17:17:45.136Z,21.60
2022-08-27T17:20:15.071Z,21.60
2022-08-27T17:22:43.873Z,21.60
2022-08-27T17:25:12.710Z,21.50
2022-08-27T17:27:42.432Z,21.50
2022-08-27T17:30:12.312Z,21.50
2022-08-27T17:32:43.626Z,21.50
2022-08-27T17:35:14.089Z,21.50
2022-08-27T17:37:42.705Z,21.50
2022-08-27T17:40:12.643Z,21.50
2022-08-27T17:42:42.338Z,21.40
2022-08-27T17:45:11.896Z,21.30
2022-08-27T17:47:40.094Z,21.40
2022-08-27T17:50:09.319Z,21.30
2022-08-27T17:52:40.018Z,21.30
2022-08-27T17:55:09.717Z,21.30
2022-08-27T17:57:41.035Z,21.30
2022-08-27T18:00:14.813Z,21.30
2022-08-27T18:02:46.304Z,21.30
2022-08-27T18:05:16.150Z,21.30
2022-08-27T18:07:44.961Z,21.30
2022-08-27T18:10:17.223Z,21.20
2022-08-27T18:12:46.540Z,21.20
2022-08-27T18:15:21.756Z,21.20
2022-08-27T18:17:53.495Z,21.20
2022-08-27T18:20:23.633Z,21.20
2022-08-27T18:22:53.891Z,21.20
2022-08-27T18:25:26.198Z,21.20
2022-08-27T18:27:59.473Z,21.10
2022-08-27T18:30:31.480Z,21.10
2022-08-27T18:33:01.849Z,21.10
2022-08-27T18:35:33.496Z,21.10
2022-08-27T18:38:02.725Z,21.10
2022-08-27T18:40:36.156Z,21.00
2022-08-27T18:43:06.498Z,21.00
2022-08-27T18:45:37.795Z,21.00
2022-08-27T18:48:14.423Z,21.00
2022-08-27T18:50:47.970Z,21.00
2022-08-27T18:53:19.831Z,21.00
2022-08-27T18:55:49.197Z,21.00
2022-08-27T18:58:18.585Z,20.90
2022-08-27T19:00:51.538Z,20.90
2022-08-27T19:03:24.498Z,20.90
2022-08-27T19:05:54.962Z,20.90
2022-08-27T19:08:25.107Z,20.90
2022-08-27T19:10:53.381Z,20.90
2022-08-27T19:13:22.233Z,20.90
2022-08-27T19:15:56.265Z,20.80
2022-08-27T19:18:27.146Z,20.80
2022-08-27T19:20:55.484Z,20.80
2022-08-27T19:23:24.231Z,20.80
2022-08-27T19:25:53.879Z,20.80
2022-08-27T19:28:27.699Z,20.80
2022-08-27T19:30:57.339Z,20.80
2022-08-27T19:33:25.585Z,20.80
2022-08-27T19:35:53.873Z,20.80
2022-08-27T19:38:22.629Z,20.70
2022-08-27T19:40:50.868Z,20.70
2022-08-27T19:43:19.149Z,20.70
2022-08-27T19:45:48.037Z,20.70
2022-08-27T19:48:18.726Z,20.70
2022-08-27T19:50:47.154Z,20.70
2022-08-27T19:53:19.500Z,20.70
2022-08-27T19:55:47.791Z,20.70
2022-08-27T19:58:18.700Z,20.60
2022-08-27T20:00:47.353Z,20.60
2022-08-27T20:03:15.698Z,20.60
2022-08-27T20:05:49.197Z,20.60
2022-08-27T20:08:19.372Z,20.60
2022-08-27T20:10:47.868Z,20.60
2022-08-27T20:13:16.288Z,20.60
2022-08-27T20:15:46.396Z,20.50
2022-08-27T20:18:16.510Z,20.50
2022-08-27T20:20:46.137Z,20.50
2022-08-27T20:23:14.327Z,20.50
2022-08-27T20:25:42.976Z,20.50
2022-08-27T20:28:37.848Z,20.50
2022-08-27T20:31:03.687Z,20.50
2022-08-27T20:33:31.930Z,20.50
2022-08-27T20:36:02.994Z,20.40
2022-08-27T20:38:31.282Z,20.40
2022-08-27T20:40:59.479Z,20.40
2022-08-27T20:43:28.484Z,20.40
2022-08-27T20:45:56.872Z,20.40
2022-08-27T20:48:25.181Z,20.40
2022-08-27T20:50:53.391Z,20.30
2022-08-27T20:53:23.300Z,20.30
2022-08-27T20:55:51.531Z,20.30
2022-08-27T20:58:37.374Z,20.30
2022-08-27T21:01:05.815Z,20.30
2022-08-27T21:03:34.179Z,20.30
2022-08-27T21:06:02.393Z,20.30
2022-08-27T21:08:31.991Z,20.30
2022-08-27T21:11:00.765Z,20.30
2022-08-27T21:13:30.593Z,20.30
2022-08-27T21:15:59.352Z,20.30
2022-08-27T21:18:29.700Z,20.20
2022-08-27T21:20:59.059Z,20.20
2022-08-27T21:23:28.031Z,20.10
2022-08-27T21:26:01.326Z,20.00
2022-08-27T21:28:29.676Z,20.10
2022-08-27T21:30:57.970Z,20.00
2022-08-27T21:33:27.416Z,19.90
2022-08-27T21:35:55.660Z,19.90
2022-08-27T21:38:23.962Z,19.90
2022-08-27T21:40:52.252Z,19.90
2022-08-27T21:43:21.937Z,19.80
2022-08-27T21:45:54.098Z,19.80
2022-08-27T21:48:22.478Z,19.80
2022-08-27T21:50:53.491Z,19.80
2022-08-27T21:53:22.724Z,19.80
2022-08-27T21:55:54.376Z,19.70
2022-08-27T21:58:26.617Z,19.70
2022-08-27T22:00:55.430Z,19.70
2022-08-27T22:03:25.892Z,19.70
2022-08-27T22:05:54.563Z,19.60
2022-08-27T22:08:23.875Z,19.60
2022-08-27T22:10:58.822Z,19.60
2022-08-27T22:13:29.419Z,19.50
2022-08-27T22:15:57.946Z,19.50
2022-08-27T22:18:26.544Z,19.40
2022-08-27T22:20:58.576Z,19.40
2022-08-27T22:23:27.482Z,19.30
2022-08-27T22:25:55.719Z,19.30
2022-08-27T22:28:24.383Z,19.30
2022-08-27T22:30:54.001Z,19.20
2022-08-27T22:33:22.311Z,19.30
2022-08-27T22:35:50.763Z,19.20
2022-08-27T22:38:18.980Z,19.20
2022-08-27T22:40:47.433Z,19.10
2022-08-27T22:43:16.021Z,19.10
2022-08-27T22:45:44.223Z,19.10
2022-08-27T22:48:14.032Z,19.00
2022-08-27T22:50:42.445Z,19.00
2022-08-27T22:53:10.916Z,19.00
2022-08-27T22:55:39.122Z,19.00
2022-08-27T22:58:07.464Z,18.90
2022-08-27T23:00:38.613Z,18.90
2022-08-27T23:03:10.071Z,18.90
2022-08-27T23:05:42.146Z,18.90
2022-08-27T23:08:13.315Z,18.90
2022-08-27T23:10:42.425Z,18.90
2022-08-27T23:13:11.718Z,18.80
2022-08-27T23:15:40.602Z,18.80
2022-08-27T23:18:08.930Z,18.70
2022-08-27T23:20:38.918Z,18.70
2022-08-27T23:23:08.035Z,18.70
2022-08-27T23:25:53.891Z,18.70
2022-08-27T23:28:23.357Z,18.70
2022-08-27T23:30:51.906Z,18.60
2022-08-27T23:33:20.445Z,18.60
2022-08-27T23:35:51.826Z,18.60
2022-08-27T23:38:22.454Z,18.60
2022-08-27T23:40:52.264Z,18.60
2022-08-27T23:43:21.885Z,18.50
2022-08-27T23:45:50.773Z,18.50
2022-08-27T23:48:19.669Z,18.50
2022-08-27T23:50:49.512Z,18.50
2022-08-27T23:53:17.766Z,18.50
2022-08-27T23:55:46.075Z,18.40
2022-08-27T23:58:14.906Z,18.40
